createdAt,value
2023-09-28T00:01:56.674Z,99144.16
2023-09-28T00:05:00.468Z,99143.00
2023-09-28T00:08:06.592Z,99143.97
2023-09-28T00:11:10.736Z,99146.06
2023-09-28T00:14:14.521Z,99141.72
2023-09-28T00:17:18.425Z,99139.72
2023-09-28T00:20:24.372Z,99142.69
2023-09-28T00:23:29.829Z,99143.84
2023-09-28T00:26:33.802Z,99139.03
2023-09-28T00:29:37.480Z,99143.72
2023-09-28T00:32:42.877Z,99135.47
2023-09-28T00:35:45.737Z,99140.06
2023-09-28T00:38:52.134Z,99145.72
2023-09-28T00:41:54.942Z,99147.59
2023-09-28T00:45:00.638Z,99139.94
2023-09-28T00:48:07.987Z,99144.44
2023-09-28T00:51:10.643Z,99142.63
2023-09-28T00:54:16.164Z,99142.53
2023-09-28T00:57:19.239Z,99143.00
2023-09-28T01:00:25.381Z,99139.91
2023-09-28T01:03:28.579Z,99143.59
2023-09-28T01:06:33.390Z,99136.13
2023-09-28T01:09:39.478Z,99136.13
2023-09-28T01:12:42.424Z,99138.25
2023-09-28T01:15:48.898Z,99139.75
2023-09-28T01:18:52.741Z,99140.47
2023-09-28T01:21:57.748Z,99142.22
2023-09-28T01:25:04.809Z,99141.50
2023-09-28T01:28:08.417Z,99136.78
2023-09-28T01:31:12.399Z,99140.16
2023-09-28T01:34:15.247Z,99132.28
2023-09-28T01:37:21.478Z,99137.13
2023-09-28T01:40:25.776Z,99132.16
2023-09-28T01:43:29.530Z,99137.19
2023-09-28T01:46:32.296Z,99128.47
2023-09-28T01:49:36.762Z,99132.00
2023-09-28T01:52:39.520Z,99135.44
2023-09-28T01:55:44.848Z,99134.81
2023-09-28T01:58:50.770Z,99127.16
2023-09-28T02:01:54.620Z,99124.28
2023-09-28T02:04:58.973Z,99129.94
2023-09-28T02:08:03.542Z,99128.06
2023-09-28T02:11:08.736Z,99132.19
2023-09-28T02:14:12.625Z,99127.84
2023-09-28T02:17:15.531Z,99125.34
2023-09-28T02:20:23.754Z,99127.84
2023-09-28T02:23:27.591Z,99134.06
2023-09-28T02:26:32.684Z,99131.16
2023-09-28T02:29:35.608Z,99130.53
2023-09-28T02:32:41.232Z,99130.41
2023-09-28T02:35:45.263Z,99132.75
2023-09-28T02:38:50.400Z,99132.97
2023-09-28T02:41:56.909Z,99132.16
2023-09-28T02:45:00.933Z,99127.34
2023-09-28T02:48:05.707Z,99127.34
2023-09-28T02:51:11.792Z,99129.53
2023-09-28T02:54:14.801Z,99134.84
2023-09-28T02:57:20.564Z,99133.06
2023-09-28T03:00:25.957Z,99133.97
2023-09-28T03:03:31.871Z,99140.53
2023-09-28T03:06:38.502Z,99145.56
2023-09-28T03:09:42.648Z,99139.31
2023-09-28T03:12:48.697Z,99133.50
2023-09-28T03:15:51.816Z,99140.06
2023-09-28T03:18:58.330Z,99138.03
2023-09-28T03:22:02.757Z,99137.06
2023-09-28T03:25:11.488Z,99141.72
2023-09-28T03:28:16.719Z,99133.06
2023-09-28T03:31:20.885Z,99134.41
2023-09-28T03:34:26.050Z,99134.84
2023-09-28T03:37:30.002Z,99133.19
2023-09-28T03:40:35.535Z,99132.16
2023-09-28T03:43:40.732Z,99126.13
2023-09-28T03:46:44.451Z,99129.88
2023-09-28T03:49:48.201Z,99127.63
2023-09-28T03:52:52.189Z,99125.38
2023-09-28T03:55:56.358Z,99126.66
2023-09-28T03:59:01.546Z,99119.81
2023-09-28T04:02:06.005Z,99122.50
2023-09-28T04:05:10.822Z,99122.06
2023-09-28T04:08:14.641Z,99122.28
2023-09-28T04:11:18.767Z,99113.13
2023-09-28T04:14:23.919Z,99113.97
2023-09-28T04:17:28.039Z,99123.25
2023-09-28T04:20:32.042Z,99117.63
2023-09-28T04:23:35.831Z,99125.38
2023-09-28T04:26:39.728Z,99120.63
2023-09-28T04:29:46.180Z,99124.59
2023-09-28T04:32:52.105Z,99130.00
2023-09-28T04:35:56.873Z,99130.00
2023-09-28T04:39:00.743Z,99135.84
2023-09-28T04:42:05.416Z,99136.31
2023-09-28T04:45:13.172Z,99130.91
2023-09-28T04:48:16.994Z,99136.91
2023-09-28T04:51:20.673Z,99139.78
2023-09-28T04:54:24.436Z,99137.59
2023-09-28T04:57:28.809Z,99145.25
2023-09-28T05:00:34.033Z,99151.78
2023-09-28T05:03:38.172Z,99142.53
2023-09-28T05:06:42.239Z,99144.88
2023-09-28T05:09:46.308Z,99138.03
2023-09-28T05:12:50.028Z,99143.84
2023-09-28T05:15:55.349Z,99142.09
2023-09-28T05:19:00.027Z,99144.97
2023-09-28T05:22:06.684Z,99145.56
2023-09-28T05:25:10.620Z,99154.44
2023-09-28T05:28:14.460Z,99145.44
2023-09-28T05:31:21.007Z,99140.16
2023-09-28T05:34:25.647Z,99144.44
2023-09-28T05:37:29.498Z,99147.06
2023-09-28T05:40:33.692Z,99153.47
2023-09-28T05:43:37.706Z,99160.44
2023-09-28T05:46:42.821Z,99149.56
2023-09-28T05:49:46.728Z,99156.53
2023-09-28T05:52:53.449Z,99155.97
2023-09-28T05:55:57.214Z,99152.75
2023-09-28T05:59:00.888Z,99149.25
2023-09-28T06:02:06.047Z,99157.88
2023-09-28T06:05:11.221Z,99155.63
2023-09-28T06:08:15.015Z,99159.69
2023-09-28T06:11:20.008Z,99169.72
2023-09-28T06:14:23.929Z,99163.97
2023-09-28T06:17:29.175Z,99160.94
2023-09-28T06:20:37.959Z,99168.72
2023-09-28T06:23:43.728Z,99174.38
2023-09-28T06:26:47.722Z,99177.91
2023-09-28T06:29:54.510Z,99172.56
2023-09-28T06:33:00.348Z,99173.59
2023-09-28T06:36:05.204Z,99172.75
2023-09-28T06:39:10.368Z,99167.56
2023-09-28T06:42:30.989Z,99169.41
2023-09-28T06:45:38.962Z,99170.47
2023-09-28T06:48:44.265Z,99170.22
2023-09-28T06:51:49.703Z,99175.59
2023-09-28T06:54:53.672Z,99174.72
2023-09-28T06:57:57.538Z,99185.56
2023-09-28T07:01:01.406Z,99182.81
2023-09-28T07:04:07.960Z,99177.66
2023-09-28T07:07:14.841Z,99174.88
2023-09-28T07:10:18.963Z,99185.44
2023-09-28T07:13:22.737Z,99182.66
2023-09-28T07:16:26.637Z,99183.63
2023-09-28T07:19:32.052Z,99177.59
2023-09-28T07:22:35.738Z,99193.59
2023-09-28T07:25:41.502Z,99194.38
2023-09-28T07:28:45.753Z,99184.75
2023-09-28T07:31:49.904Z,99188.47
2023-09-28T07:34:55.162Z,99183.47
2023-09-28T07:37:59.052Z,99180.94
2023-09-28T07:41:04.709Z,99176.25
2023-09-28T07:44:08.732Z,99186.25
2023-09-28T07:47:12.822Z,99179.09
2023-09-28T07:50:18.712Z,99186.63
2023-09-28T07:53:22.516Z,99190.53
2023-09-28T07:56:26.592Z,99186.63
2023-09-28T07:59:30.453Z,99194.13
2023-09-28T08:02:34.626Z,99190.69
2023-09-28T08:05:40.326Z,99201.44
2023-09-28T08:08:44.224Z,99195.28
2023-09-28T08:11:49.811Z,99196.22
2023-09-28T08:14:53.933Z,99187.56
2023-09-28T08:17:58.444Z,99190.13
2023-09-28T08:21:10.565Z,99193.47
2023-09-28T08:24:15.098Z,99189.72
2023-09-28T08:27:18.881Z,99192.22
2023-09-28T08:30:22.633Z,99195.53
2023-09-28T08:33:26.500Z,99197.19
2023-09-28T08:36:32.145Z,99192.53
2023-09-28T08:39:38.247Z,99202.72
2023-09-28T08:42:47.131Z,99199.19
2023-09-28T08:45:54.616Z,99206.03
2023-09-28T08:49:03.561Z,99194.50
2023-09-28T08:52:09.313Z,99210.38
2023-09-28T08:55:14.271Z,99204.88
2023-09-28T08:58:19.345Z,99208.72
2023-09-28T09:01:23.394Z,99211.16
2023-09-28T09:04:27.534Z,99201.53
2023-09-28T09:07:33.506Z,99206.97
2023-09-28T09:10:39.075Z,99206.44
2023-09-28T09:13:52.073Z,99201.75
2023-09-28T09:16:57.379Z,99208.28
2023-09-28T09:20:01.132Z,99200.84
2023-09-28T09:23:15.175Z,99202.16
2023-09-28T09:26:19.659Z,99214.44
2023-09-28T09:29:23.711Z,99209.97
2023-09-28T09:32:29.155Z,99202.25
2023-09-28T09:35:32.921Z,99203.53
2023-09-28T09:38:38.080Z,99199.91
2023-09-28T09:41:48.124Z,99193.22
2023-09-28T09:44:54.032Z,99200.53
2023-09-28T09:47:58.983Z,99198.53
2023-09-28T09:51:04.041Z,99194.91
2023-09-28T09:54:12.796Z,99200.03
2023-09-28T09:57:18.719Z,99198.53
2023-09-28T10:00:25.160Z,99211.03
2023-09-28T10:03:30.525Z,99202.13
2023-09-28T10:06:34.853Z,99202.31
2023-09-28T10:09:40.213Z,99194.25
2023-09-28T10:12:44.750Z,99192.50
2023-09-28T10:15:49.582Z,99191.06
2023-09-28T10:18:55.684Z,99184.88
2023-09-28T10:22:01.415Z,99184.03
2023-09-28T10:25:07.821Z,99179.22
2023-09-28T10:28:12.421Z,99183.75
2023-09-28T10:31:18.567Z,99188.31
2023-09-28T10:34:23.804Z,99182.72
2023-09-28T10:37:28.420Z,99182.94
2023-09-28T10:40:48.393Z,99181.78
2023-09-28T10:43:58.447Z,99180.25
2023-09-28T10:47:02.662Z,99190.69
2023-09-28T10:50:09.793Z,99170.34
2023-09-28T10:53:14.256Z,99180.56
2023-09-28T10:56:19.960Z,99187.66
2023-09-28T10:59:25.396Z,99181.38
2023-09-28T11:02:32.990Z,99194.72
2023-09-28T11:05:38.659Z,99183.28
2023-09-28T11:08:44.690Z,99188.44
2023-09-28T11:11:50.974Z,99190.41
2023-09-28T11:14:57.099Z,99181.94
2023-09-28T11:18:01.286Z,99185.34
2023-09-28T11:21:05.689Z,99178.91
2023-09-28T11:24:09.931Z,99176.09
2023-09-28T11:27:15.997Z,99176.41
2023-09-28T11:30:21.378Z,99183.84
2023-09-28T11:33:25.137Z,99181.50
2023-09-28T11:36:29.691Z,99185.28
2023-09-28T11:39:34.215Z,99173.78
2023-09-28T11:42:44.163Z,99169.88
2023-09-28T11:45:50.462Z,99172.84
2023-09-28T11:49:05.684Z,99160.31
2023-09-28T11:52:09.739Z,99156.63
2023-09-28T11:55:16.272Z,99166.34
2023-09-28T11:58:24.890Z,99170.69
2023-09-28T12:01:29.709Z,99159.63
2023-09-28T12:04:33.909Z,99157.47
2023-09-28T12:07:37.697Z,99160.34
2023-09-28T12:10:41.509Z,99154.50
2023-09-28T12:13:47.784Z,99156.59
2023-09-28T12:16:53.329Z,99168.56
2023-09-28T12:19:57.736Z,99169.19
2023-09-28T12:23:03.781Z,99163.31
2023-09-28T12:26:08.021Z,99155.78
2023-09-28T12:29:13.823Z,99154.66
2023-09-28T12:32:17.760Z,99155.84
2023-09-28T12:35:22.648Z,99166.41
2023-09-28T12:38:26.558Z,99153.00
2023-09-28T12:41:31.097Z,99153.41
2023-09-28T12:44:36.361Z,99151.50
2023-09-28T12:47:40.475Z,99157.13
2023-09-28T12:50:45.109Z,99152.75
2023-09-28T12:53:48.960Z,99152.59
2023-09-28T12:56:53.882Z,99160.28
2023-09-28T12:59:58.997Z,99155.25
2023-09-28T13:03:08.136Z,99147.00
2023-09-28T13:06:12.029Z,99156.91
2023-09-28T13:09:15.952Z,99152.41
2023-09-28T13:12:19.799Z,99149.75
2023-09-28T13:15:25.337Z,99149.63
2023-09-28T13:18:30.532Z,99144.06
2023-09-28T13:21:35.072Z,99136.84
2023-09-28T13:24:39.144Z,99133.66
2023-09-28T13:27:42.947Z,99140.22
2023-09-28T13:30:48.356Z,99145.34
2023-09-28T13:33:52.868Z,99133.38
2023-09-28T13:36:57.469Z,99134.59
2023-09-28T13:40:02.115Z,99127.22
2023-09-28T13:43:07.013Z,99125.97
2023-09-28T13:46:12.282Z,99130.09
2023-09-28T13:49:16.488Z,99122.53
2023-09-28T13:52:20.302Z,99115.50
2023-09-28T13:55:24.404Z,99114.84
2023-09-28T13:58:28.803Z,99114.44
2023-09-28T14:01:34.115Z,99112.91
2023-09-28T14:04:38.304Z,99106.41
2023-09-28T14:07:42.072Z,99114.44
2023-09-28T14:10:47.257Z,99101.63
2023-09-28T14:13:51.278Z,99100.44
2023-09-28T14:17:05.607Z,99092.66
2023-09-28T14:20:16.595Z,99089.31
2023-09-28T14:23:20.418Z,99091.72
2023-09-28T14:26:24.362Z,99088.38
2023-09-28T14:29:28.079Z,99089.16
2023-09-28T14:32:33.405Z,99088.84
2023-09-28T14:35:39.721Z,99091.03
2023-09-28T14:38:43.414Z,99085.72
2023-09-28T14:41:47.227Z,99076.28
2023-09-28T14:44:53.135Z,99079.94
2023-09-28T14:47:58.276Z,99083.97
2023-09-28T14:51:02.160Z,99081.09
2023-09-28T14:54:06.780Z,99083.69
2023-09-28T14:57:11.344Z,99076.56
2023-09-28T15:00:16.841Z,99074.25
2023-09-28T15:03:22.950Z,99071.94
2023-09-28T15:06:26.845Z,99070.31
2023-09-28T15:09:30.838Z,99059.78
2023-09-28T15:12:34.930Z,99056.19
2023-09-28T15:15:41.100Z,99059.66
2023-09-28T15:18:46.795Z,99045.25
2023-09-28T15:21:50.908Z,99058.81
2023-09-28T15:24:54.743Z,99062.63
2023-09-28T15:27:58.583Z,99055.38
2023-09-28T15:31:02.280Z,99058.56
2023-09-28T15:34:07.657Z,99046.91
2023-09-28T15:37:13.025Z,99040.72
2023-09-28T15:40:16.913Z,99048.50
2023-09-28T15:43:21.048Z,99050.63
2023-09-28T15:46:24.840Z,99040.94
2023-09-28T15:49:30.240Z,99043.13
2023-09-28T15:52:34.345Z,99039.81
2023-09-28T15:55:38.007Z,99031.47
2023-09-28T15:58:41.808Z,99041.81
2023-09-28T16:01:46.989Z,99043.06
2023-09-28T16:04:52.170Z,99036.06
2023-09-28T16:07:57.203Z,99029.50
2023-09-28T16:11:01.675Z,99021.72
2023-09-28T16:14:05.448Z,99034.16
2023-09-28T16:17:09.996Z,99032.66
2023-09-28T16:20:15.209Z,99036.06
2023-09-28T16:23:19.808Z,99034.00
2023-09-28T16:26:23.610Z,99031.66
2023-09-28T16:29:27.789Z,99044.22
2023-09-28T16:32:31.469Z,99051.81
2023-09-28T16:35:36.747Z,99040.72
2023-09-28T16:38:40.798Z,99047.94
2023-09-28T16:41:46.241Z,99048.47
2023-09-28T16:44:50.070Z,99048.88
2023-09-28T16:47:54.852Z,99047.56
2023-09-28T16:51:00.018Z,99043.19
2023-09-28T16:54:05.259Z,99049.97
2023-09-28T16:57:09.191Z,99047.13
2023-09-28T17:00:14.138Z,99048.06
2023-09-28T17:03:18.208Z,99040.22
2023-09-28T17:06:23.452Z,99039.75
2023-09-28T17:09:27.704Z,99042.34
2023-09-28T17:12:43.381Z,99045.72
2023-09-28T17:15:49.805Z,99050.38
2023-09-28T17:18:53.943Z,99053.97
2023-09-28T17:21:59.111Z,99058.63
2023-09-28T17:25:03.288Z,99059.19
2023-09-28T17:28:07.823Z,99053.41
2023-09-28T17:31:11.834Z,99055.88
2023-09-28T17:34:15.588Z,99061.34
2023-09-28T17:37:21.057Z,99064.66
2023-09-28T17:40:24.795Z,99062.13
2023-09-28T17:43:28.741Z,99061.28
2023-09-28T17:46:32.504Z,99068.41
2023-09-28T17:49:36.339Z,99076.03
2023-09-28T17:52:41.486Z,99078.16
2023-09-28T17:55:47.110Z,99078.13
2023-09-28T17:58:52.553Z,99083.34
2023-09-28T18:01:57.211Z,99089.63
2023-09-28T18:05:02.998Z,99084.16
2023-09-28T18:08:09.018Z,99100.00
2023-09-28T18:11:12.888Z,99098.84
2023-09-28T18:14:17.137Z,99097.19
2023-09-28T18:17:21.234Z,99103.16
2023-09-28T18:20:25.315Z,99099.34
2023-09-28T18:23:30.604Z,99096.03
2023-09-28T18:26:34.798Z,99099.84
2023-09-28T18:29:39.491Z,99099.84
2023-09-28T18:32:43.277Z,99105.81
2023-09-28T18:35:47.605Z,99115.09
2023-09-28T18:39:07.544Z,99110.16
2023-09-28T18:42:16.205Z,99119.72
2023-09-28T18:45:20.041Z,99109.63
2023-09-28T18:48:24.722Z,99117.25
2023-09-28T18:51:28.623Z,99113.66
2023-09-28T18:54:33.769Z,99113.59
2023-09-28T18:57:38.002Z,99125.34
2023-09-28T19:00:41.885Z,99127.50
2023-09-28T19:03:45.793Z,99128.59
2023-09-28T19:06:49.852Z,99127.44
2023-09-28T19:09:55.548Z,99133.47
2023-09-28T19:12:59.333Z,99127.44
2023-09-28T19:16:06.408Z,99137.78
2023-09-28T19:19:10.399Z,99142.94
2023-09-28T19:22:16.915Z,99135.53
2023-09-28T19:25:23.482Z,99149.16
2023-09-28T19:28:28.274Z,99140.91
2023-09-28T19:31:32.628Z,99135.41
2023-09-28T19:34:36.238Z,99135.03
2023-09-28T19:37:41.179Z,99144.78
2023-09-28T19:40:46.463Z,99136.19
2023-09-28T19:43:50.408Z,99141.03
2023-09-28T19:46:54.335Z,99146.41
2023-09-28T19:49:58.177Z,99140.59
2023-09-28T19:53:02.092Z,99150.31
2023-09-28T19:56:09.294Z,99154.88
2023-09-28T19:59:12.978Z,99148.78
2023-09-28T20:02:16.971Z,99149.28
2023-09-28T20:05:20.776Z,99159.06
2023-09-28T20:08:24.797Z,99155.78
2023-09-28T20:11:30.037Z,99162.22
2023-09-28T20:14:33.797Z,99158.38
2023-09-28T20:17:38.214Z,99156.16
2023-09-28T20:20:42.046Z,99159.97
2023-09-28T20:23:45.696Z,99156.31
2023-09-28T20:26:50.953Z,99159.25
2023-09-28T20:29:55.095Z,99165.19
2023-09-28T20:32:58.942Z,99161.31
2023-09-28T20:36:14.036Z,99149.53
2023-09-28T20:39:21.489Z,99152.44
2023-09-28T20:42:31.485Z,99158.03
2023-09-28T20:45:43.072Z,99162.00
2023-09-28T20:48:48.417Z,99160.78
2023-09-28T20:51:58.530Z,99158.41
2023-09-28T20:55:06.960Z,99165.41
2023-09-28T20:58:17.480Z,99169.03
2023-09-28T21:01:22.712Z,99161.19
2023-09-28T21:04:36.923Z,99161.38
2023-09-28T21:07:46.631Z,99161.50
2023-09-28T21:10:50.632Z,99169.34
2023-09-28T21:13:56.205Z,99172.22
2023-09-28T21:17:00.127Z,99169.31
2023-09-28T21:20:04.346Z,99163.13
2023-09-28T21:23:08.394Z,99169.97
2023-09-28T21:26:13.241Z,99167.41
2023-09-28T21:29:18.470Z,99167.41
2023-09-28T21:32:22.713Z,99160.06
2023-09-28T21:35:26.510Z,99161.72
2023-09-28T21:38:30.360Z,99160.66
2023-09-28T21:41:34.448Z,99153.56
2023-09-28T21:44:39.973Z,99156.78
2023-09-28T21:47:44.047Z,99154.28
2023-09-28T21:50:47.885Z,99160.78
2023-09-28T21:53:51.612Z,99153.47
2023-09-28T21:56:55.685Z,99162.22
2023-09-28T22:00:00.817Z,99158.06
2023-09-28T22:03:06.655Z,99155.50
2023-09-28T22:06:10.805Z,99154.56
2023-09-28T22:09:15.159Z,99154.72
2023-09-28T22:12:19.143Z,99142.09
2023-09-28T22:15:24.898Z,99153.44
2023-09-28T22:18:28.650Z,99149.53
2023-09-28T22:21:32.511Z,99150.63
2023-09-28T22:24:36.368Z,99154.19
2023-09-28T22:27:41.008Z,99159.25
2023-09-28T22:30:46.122Z,99156.41
2023-09-28T22:33:50.035Z,99159.13
2023-09-28T22:36:53.705Z,99157.72
2023-09-28T22:40:02.832Z,99158.69
2023-09-28T22:43:12.314Z,99148.78
2023-09-28T22:46:17.981Z,99158.47
2023-09-28T22:49:21.738Z,99158.72
2023-09-28T22:52:27.226Z,99163.78
2023-09-28T22:55:30.886Z,99159.19
2023-09-28T22:58:34.903Z,99157.53
2023-09-28T23:01:40.431Z,99151.66
2023-09-28T23:04:44.175Z,99154.69
2023-09-28T23:07:48.554Z,99154.38
2023-09-28T23:10:55.307Z,99151.41
2023-09-28T23:13:59.128Z,99158.97
2023-09-28T23:17:04.284Z,99156.97
2023-09-28T23:20:11.280Z,99153.28
2023-09-28T23:23:17.625Z,99155.66
2023-09-28T23:26:24.423Z,99150.91
2023-09-28T23:29:30.028Z,99155.50
2023-09-28T23:32:37.845Z,99164.72
2023-09-28T23:35:42.534Z,99169.53
2023-09-28T23:38:47.749Z,99164.56
2023-09-28T23:41:53.622Z,99171.19
2023-09-28T23:44:57.492Z,99170.22
2023-09-28T23:48:05.655Z,99172.94
2023-09-28T23:51:12.937Z,99165.88
2023-09-28T23:54:18.259Z,99166.94
2023-09-28T23:57:22.054Z,99174.50
